sensor_id;sensor_type;location;lat;lon;timestamp;temperature;humidity
33594;DHT22;19920;52.242;20.940;2023-04-25T00:00:46;12.70;99.90
33594;DHT22;19920;52.242;20.940;2023-04-25T00:03:11;12.70;99.90
33594;DHT22;19920;52.242;20.940;2023-04-25T00:05:37;12.60;99.90
33594;DHT22;19920;52.242;20.940;2023-04-25T00:08:03;12.60;99.90
33594;DHT22;19920;52.242;20.940;2023-04-25T00:10:29;12.60;99.90
33594;DHT22;19920;52.242;20.940;2023-04-25T00:12:55;12.60;99.90
33594;DHT22;19920;52.242;20.940;2023-04-25T00:15:20;12.70;99.90
33594;DHT22;19920;52.242;20.940;2023-04-25T00:17:47;12.60;99.90
33594;DHT22;19920;52.242;20.940;2023-04-25T00:20:13;12.60;99.90
33594;DHT22;19920;52.242;20.940;2023-04-25T00:22:38;12.60;99.90
33594;DHT22;19920;52.242;20.940;2023-04-25T00:25:05;12.60;99.90
33594;DHT22;19920;52.242;20.940;2023-04-25T00:27:31;12.60;99.90
33594;DHT22;19920;52.242;20.940;2023-04-25T00:29:57;12.70;99.90
33594;DHT22;19920;52.242;20.940;2023-04-25T00:32:23;12.70;99.90
33594;DHT22;19920;52.242;20.940;2023-04-25T00:34:48;12.80;99.90
33594;DHT22;19920;52.242;20.940;2023-04-25T00:37:14;12.70;99.90
33594;DHT22;19920;52.242;20.940;2023-04-25T00:39:40;12.80;99.90
33594;DHT22;19920;52.242;20.940;2023-04-25T00:42:05;12.80;99.90
33594;DHT22;19920;52.242;20.940;2023-04-25T00:44:31;12.70;99.90
33594;DHT22;19920;52.242;20.940;2023-04-25T00:46:57;12.70;99.90
33594;DHT22;19920;52.242;20.940;2023-04-25T00:49:23;12.70;99.90
33594;DHT22;19920;52.242;20.940;2023-04-25T00:51:49;12.70;99.90
33594;DHT22;19920;52.242;20.940;2023-04-25T00:54:15;12.70;99.90
33594;DHT22;19920;52.242;20.940;2023-04-25T00:56:41;12.60;99.90
33594;DHT22;19920;52.242;20.940;2023-04-25T00:59:09;12.60;99.90
33594;DHT22;19920;52.242;20.940;2023-04-25T01:01:35;12.60;99.90
33594;DHT22;19920;52.242;20.940;2023-04-25T01:04:01;12.70;99.90
33594;DHT22;19920;52.242;20.940;2023-04-25T01:06:27;12.70;99.90
33594;DHT22;19920;52.242;20.940;2023-04-25T01:08:53;12.70;99.90
33594;DHT22;19920;52.242;20.940;2023-04-25T01:11:19;12.70;99.90
33594;DHT22;19920;52.242;20.940;2023-04-25T01:13:45;12.60;99.90
33594;DHT22;19920;52.242;20.940;2023-04-25T01:16:11;12.60;99.90
33594;DHT22;19920;52.242;20.940;2023-04-25T01:18:39;12.60;99.90
33594;DHT22;19920;52.242;20.940;2023-04-25T01:21:12;12.60;99.90
33594;DHT22;19920;52.242;20.940;2023-04-25T01:23:40;12.50;99.90
33594;DHT22;19920;52.242;20.940;2023-04-25T01:26:06;12.40;99.90
33594;DHT22;19920;52.242;20.940;2023-04-25T01:28:34;12.30;99.90
33594;DHT22;19920;52.242;20.940;2023-04-25T01:31:00;12.20;99.90
33594;DHT22;19920;52.242;20.940;2023-04-25T01:33:26;12.10;99.90
33594;DHT22;19920;52.242;20.940;2023-04-25T01:35:52;12.00;99.90
33594;DHT22;19920;52.242;20.940;2023-04-25T01:38:18;12.00;99.90
33594;DHT22;19920;52.242;20.940;2023-04-25T01:40:45;11.90;99.90
33594;DHT22;19920;52.242;20.940;2023-04-25T01:43:11;11.90;99.90
33594;DHT22;19920;52.242;20.940;2023-04-25T01:45:41;12.00;99.90
33594;DHT22;19920;52.242;20.940;2023-04-25T01:48:11;12.00;99.90
33594;DHT22;19920;52.242;20.940;2023-04-25T01:50:38;12.00;99.90
33594;DHT22;19920;52.242;20.940;2023-04-25T01:53:05;12.00;99.90
33594;DHT22;19920;52.242;20.940;2023-04-25T01:55:30;11.90;99.90
33594;DHT22;19920;52.242;20.940;2023-04-25T01:57:56;11.90;99.90
33594;DHT22;19920;52.242;20.940;2023-04-25T02:00:22;11.90;99.90
33594;DHT22;19920;52.242;20.940;2023-04-25T02:02:48;11.90;99.90
33594;DHT22;19920;52.242;20.940;2023-04-25T02:05:16;11.80;99.90
33594;DHT22;19920;52.242;20.940;2023-04-25T02:07:42;11.90;99.90
33594;DHT22;19920;52.242;20.940;2023-04-25T02:10:08;11.90;99.90
33594;DHT22;19920;52.242;20.940;2023-04-25T02:12:34;11.90;99.90
33594;DHT22;19920;52.242;20.940;2023-04-25T02:15:00;11.90;99.90
33594;DHT22;19920;52.242;20.940;2023-04-25T02:17:26;11.90;99.90
33594;DHT22;19920;52.242;20.940;2023-04-25T02:19:51;11.90;99.90
33594;DHT22;19920;52.242;20.940;2023-04-25T02:22:17;11.90;99.90
33594;DHT22;19920;52.242;20.940;2023-04-25T02:24:43;11.90;99.90
33594;DHT22;19920;52.242;20.940;2023-04-25T02:27:08;11.90;99.90
33594;DHT22;19920;52.242;20.940;2023-04-25T02:29:34;11.90;99.90
33594;DHT22;19920;52.242;20.940;2023-04-25T02:32:00;11.70;99.90
33594;DHT22;19920;52.242;20.940;2023-04-25T02:34:26;11.70;99.90
33594;DHT22;19920;52.242;20.940;2023-04-25T02:36:51;11.60;99.90
33594;DHT22;19920;52.242;20.940;2023-04-25T02:39:17;11.50;99.90
33594;DHT22;19920;52.242;20.940;2023-04-25T02:41:43;11.50;99.90
33594;DHT22;19920;52.242;20.940;2023-04-25T02:44:08;11.40;99.90
33594;DHT22;19920;52.242;20.940;2023-04-25T02:46:34;11.40;99.90
33594;DHT22;19920;52.242;20.940;2023-04-25T02:49:00;11.40;99.90
33594;DHT22;19920;52.242;20.940;2023-04-25T02:51:25;11.40;99.90
33594;DHT22;19920;52.242;20.940;2023-04-25T02:53:51;11.40;99.90
33594;DHT22;19920;52.242;20.940;2023-04-25T02:56:17;11.40;99.90
33594;DHT22;19920;52.242;20.940;2023-04-25T02:58:42;11.40;99.90
33594;DHT22;19920;52.242;20.940;2023-04-25T03:01:08;11.50;99.90
33594;DHT22;19920;52.242;20.940;2023-04-25T03:03:34;11.40;99.90
33594;DHT22;19920;52.242;20.940;2023-04-25T03:05:59;11.40;99.90
33594;DHT22;19920;52.242;20.940;2023-04-25T03:08:25;11.40;99.90
33594;DHT22;19920;52.242;20.940;2023-04-25T03:10:54;11.40;99.90
33594;DHT22;19920;52.242;20.940;2023-04-25T03:13:20;11.40;99.90
33594;DHT22;19920;52.242;20.940;2023-04-25T03:15:46;11.50;99.90
33594;DHT22;19920;52.242;20.940;2023-04-25T03:18:12;11.50;99.90
33594;DHT22;19920;52.242;20.940;2023-04-25T03:20:37;11.40;99.90
33594;DHT22;19920;52.242;20.940;2023-04-25T03:23:04;11.40;99.90
33594;DHT22;19920;52.242;20.940;2023-04-25T03:25:30;11.50;99.90
33594;DHT22;19920;52.242;20.940;2023-04-25T03:27:56;11.50;99.90
33594;DHT22;19920;52.242;20.940;2023-04-25T03:30:22;11.50;99.90
33594;DHT22;19920;52.242;20.940;2023-04-25T03:32:47;11.50;99.90
33594;DHT22;19920;52.242;20.940;2023-04-25T03:35:13;11.60;99.90
33594;DHT22;19920;52.242;20.940;2023-04-25T03:37:39;11.50;99.90
33594;DHT22;19920;52.242;20.940;2023-04-25T03:40:06;11.60;99.90
33594;DHT22;19920;52.242;20.940;2023-04-25T03:42:32;11.60;99.90
33594;DHT22;19920;52.242;20.940;2023-04-25T03:44:57;11.50;99.90
33594;DHT22;19920;52.242;20.940;2023-04-25T03:47:23;11.60;99.90
33594;DHT22;19920;52.242;20.940;2023-04-25T03:49:48;11.60;99.90
33594;DHT22;19920;52.242;20.940;2023-04-25T03:52:17;11.60;99.90
33594;DHT22;19920;52.242;20.940;2023-04-25T03:54:43;11.70;99.90
33594;DHT22;19920;52.242;20.940;2023-04-25T03:57:09;11.70;99.90
33594;DHT22;19920;52.242;20.940;2023-04-25T03:59:35;11.70;99.90
33594;DHT22;19920;52.242;20.940;2023-04-25T04:02:02;11.80;99.90
33594;DHT22;19920;52.242;20.940;2023-04-25T04:04:28;11.80;99.90
33594;DHT22;19920;52.242;20.940;2023-04-25T04:06:53;11.80;99.90
33594;DHT22;19920;52.242;20.940;2023-04-25T04:09:19;11.80;99.90
33594;DHT22;19920;52.242;20.940;2023-04-25T04:11:45;11.90;99.90
33594;DHT22;19920;52.242;20.940;2023-04-25T04:14:11;11.80;99.90
33594;DHT22;19920;52.242;20.940;2023-04-25T04:16:37;11.90;99.90
33594;DHT22;19920;52.242;20.940;2023-04-25T04:19:02;12.00;99.90
33594;DHT22;19920;52.242;20.940;2023-04-25T04:21:28;12.00;99.90
33594;DHT22;19920;52.242;20.940;2023-04-25T04:23:54;12.00;99.90
33594;DHT22;19920;52.242;20.940;2023-04-25T04:26:20;11.90;99.90
33594;DHT22;19920;52.242;20.940;2023-04-25T04:28:49;12.00;99.90
33594;DHT22;19920;52.242;20.940;2023-04-25T04:31:20;12.10;99.90
33594;DHT22;19920;52.242;20.940;2023-04-25T04:33:46;11.90;99.90
33594;DHT22;19920;52.242;20.940;2023-04-25T04:36:12;11.90;99.90
33594;DHT22;19920;52.242;20.940;2023-04-25T04:38:38;11.70;99.90
33594;DHT22;19920;52.242;20.940;2023-04-25T04:41:05;11.70;99.90
33594;DHT22;19920;52.242;20.940;2023-04-25T04:43:31;11.70;99.90
33594;DHT22;19920;52.242;20.940;2023-04-25T04:46:00;11.70;99.90
33594;DHT22;19920;52.242;20.940;2023-04-25T04:48:26;11.60;99.90
33594;DHT22;19920;52.242;20.940;2023-04-25T04:50:51;11.60;99.90
33594;DHT22;19920;52.242;20.940;2023-04-25T04:53:17;11.60;99.90
33594;DHT22;19920;52.242;20.940;2023-04-25T04:55:43;11.50;99.90
33594;DHT22;19920;52.242;20.940;2023-04-25T04:58:08;11.50;99.90
33594;DHT22;19920;52.242;20.940;2023-04-25T05:00:34;11.50;99.90
33594;DHT22;19920;52.242;20.940;2023-04-25T05:03:00;11.50;99.90
33594;DHT22;19920;52.242;20.940;2023-04-25T05:05:26;11.50;99.90
33594;DHT22;19920;52.242;20.940;2023-04-25T05:07:51;11.50;99.90
33594;DHT22;19920;52.242;20.940;2023-04-25T05:10:18;11.50;99.90
33594;DHT22;19920;52.242;20.940;2023-04-25T05:12:44;11.40;99.90
33594;DHT22;19920;52.242;20.940;2023-04-25T05:15:10;11.40;99.90
33594;DHT22;19920;52.242;20.940;2023-04-25T05:17:36;11.40;99.90
33594;DHT22;19920;52.242;20.940;2023-04-25T05:20:02;11.40;99.90
33594;DHT22;19920;52.242;20.940;2023-04-25T05:22:28;11.20;99.90
33594;DHT22;19920;52.242;20.940;2023-04-25T05:24:53;11.30;99.90
33594;DHT22;19920;52.242;20.940;2023-04-25T05:27:20;11.30;99.90
33594;DHT22;19920;52.242;20.940;2023-04-25T05:29:45;11.30;99.90
33594;DHT22;19920;52.242;20.940;2023-04-25T05:32:11;11.30;99.90
33594;DHT22;19920;52.242;20.940;2023-04-25T05:34:37;11.40;99.90
33594;DHT22;19920;52.242;20.940;2023-04-25T05:37:03;11.40;99.90
33594;DHT22;19920;52.242;20.940;2023-04-25T05:39:28;11.50;99.90
33594;DHT22;19920;52.242;20.940;2023-04-25T05:41:54;11.40;99.90
33594;DHT22;19920;52.242;20.940;2023-04-25T05:44:21;11.30;99.90
33594;DHT22;19920;52.242;20.940;2023-04-25T05:46:46;11.20;99.90
33594;DHT22;19920;52.242;20.940;2023-04-25T05:49:13;11.20;99.90
33594;DHT22;19920;52.242;20.940;2023-04-25T05:51:38;11.10;99.90
33594;DHT22;19920;52.242;20.940;2023-04-25T05:54:04;11.00;99.90
33594;DHT22;19920;52.242;20.940;2023-04-25T05:56:30;11.10;99.90
33594;DHT22;19920;52.242;20.940;2023-04-25T05:58:55;11.10;99.90
33594;DHT22;19920;52.242;20.940;2023-04-25T06:01:22;11.20;99.90
33594;DHT22;19920;52.242;20.940;2023-04-25T06:03:48;11.20;99.90
33594;DHT22;19920;52.242;20.940;2023-04-25T06:06:14;11.10;99.90
33594;DHT22;19920;52.242;20.940;2023-04-25T06:08:40;11.10;99.90
33594;DHT22;19920;52.242;20.940;2023-04-25T06:11:06;11.10;99.90
33594;DHT22;19920;52.242;20.940;2023-04-25T06:13:32;11.10;99.90
33594;DHT22;19920;52.242;20.940;2023-04-25T06:15:57;11.10;99.90
33594;DHT22;19920;52.242;20.940;2023-04-25T06:18:23;11.10;99.90
33594;DHT22;19920;52.242;20.940;2023-04-25T06:20:48;11.10;99.90
33594;DHT22;19920;52.242;20.940;2023-04-25T06:23:14;11.10;99.90
33594;DHT22;19920;52.242;20.940;2023-04-25T06:25:40;11.10;99.90
33594;DHT22;19920;52.242;20.940;2023-04-25T06:28:05;11.20;99.90
33594;DHT22;19920;52.242;20.940;2023-04-25T06:30:31;11.10;99.90
33594;DHT22;19920;52.242;20.940;2023-04-25T06:32:57;11.20;99.90
33594;DHT22;19920;52.242;20.940;2023-04-25T06:35:22;11.30;99.90
33594;DHT22;19920;52.242;20.940;2023-04-25T06:37:48;11.30;99.90
33594;DHT22;19920;52.242;20.940;2023-04-25T06:40:13;11.30;99.90
33594;DHT22;19920;52.242;20.940;2023-04-25T06:42:40;11.10;99.90
33594;DHT22;19920;52.242;20.940;2023-04-25T06:45:06;11.00;99.90
33594;DHT22;19920;52.242;20.940;2023-04-25T06:47:31;10.80;99.90
33594;DHT22;19920;52.242;20.940;2023-04-25T06:49:57;10.70;99.90
33594;DHT22;19920;52.242;20.940;2023-04-25T06:52:23;10.70;99.90
33594;DHT22;19920;52.242;20.940;2023-04-25T06:54:48;10.60;99.90
33594;DHT22;19920;52.242;20.940;2023-04-25T06:57:14;10.50;99.90
33594;DHT22;19920;52.242;20.940;2023-04-25T06:59:40;10.60;99.90
33594;DHT22;19920;52.242;20.940;2023-04-25T07:02:05;10.60;99.90
33594;DHT22;19920;52.242;20.940;2023-04-25T07:04:31;10.80;99.90
33594;DHT22;19920;52.242;20.940;2023-04-25T07:06:57;10.80;99.90
33594;DHT22;19920;52.242;20.940;2023-04-25T07:09:23;10.80;99.90
33594;DHT22;19920;52.242;20.940;2023-04-25T07:11:48;11.00;99.90
33594;DHT22;19920;52.242;20.940;2023-04-25T07:14:14;10.90;99.90
33594;DHT22;19920;52.242;20.940;2023-04-25T07:16:40;11.00;99.90
33594;DHT22;19920;52.242;20.940;2023-04-25T07:19:06;11.20;99.90
33594;DHT22;19920;52.242;20.940;2023-04-25T07:21:31;11.10;99.90
33594;DHT22;19920;52.242;20.940;2023-04-25T07:23:58;11.10;99.90
33594;DHT22;19920;52.242;20.940;2023-04-25T07:26:23;11.10;99.90
33594;DHT22;19920;52.242;20.940;2023-04-25T07:28:49;11.00;99.90
33594;DHT22;19920;52.242;20.940;2023-04-25T07:31:17;11.00;99.90
33594;DHT22;19920;52.242;20.940;2023-04-25T07:33:46;10.90;99.90
33594;DHT22;19920;52.242;20.940;2023-04-25T07:36:12;11.10;99.90
33594;DHT22;19920;52.242;20.940;2023-04-25T07:38:38;11.10;99.90
33594;DHT22;19920;52.242;20.940;2023-04-25T07:41:04;11.20;99.90
33594;DHT22;19920;52.242;20.940;2023-04-25T07:43:30;11.40;99.90
33594;DHT22;19920;52.242;20.940;2023-04-25T07:45:56;11.20;99.90
33594;DHT22;19920;52.242;20.940;2023-04-25T07:48:22;11.40;99.90
33594;DHT22;19920;52.242;20.940;2023-04-25T07:50:47;11.50;99.90
33594;DHT22;19920;52.242;20.940;2023-04-25T07:53:13;11.60;99.90
33594;DHT22;19920;52.242;20.940;2023-04-25T07:55:39;11.70;99.90
33594;DHT22;19920;52.242;20.940;2023-04-25T07:58:09;11.60;99.90
33594;DHT22;19920;52.242;20.940;2023-04-25T08:00:35;11.40;99.90
33594;DHT22;19920;52.242;20.940;2023-04-25T08:03:01;11.20;99.90
33594;DHT22;19920;52.242;20.940;2023-04-25T08:05:28;11.00;99.90
33594;DHT22;19920;52.242;20.940;2023-04-25T08:07:54;11.10;99.90
33594;DHT22;19920;52.242;20.940;2023-04-25T08:10:19;11.00;99.90
33594;DHT22;19920;52.242;20.940;2023-04-25T08:12:46;11.20;99.90
33594;DHT22;19920;52.242;20.940;2023-04-25T08:15:11;11.20;99.90
33594;DHT22;19920;52.242;20.940;2023-04-25T08:17:39;11.10;99.90
33594;DHT22;19920;52.242;20.940;2023-04-25T08:20:05;10.90;99.90
33594;DHT22;19920;52.242;20.940;2023-04-25T08:22:31;10.80;99.90
33594;DHT22;19920;52.242;20.940;2023-04-25T08:24:57;10.70;99.90
33594;DHT22;19920;52.242;20.940;2023-04-25T08:27:22;10.50;99.90
33594;DHT22;19920;52.242;20.940;2023-04-25T08:29:49;10.60;99.90
33594;DHT22;19920;52.242;20.940;2023-04-25T08:32:14;10.60;99.90
33594;DHT22;19920;52.242;20.940;2023-04-25T08:34:40;10.60;99.90
33594;DHT22;19920;52.242;20.940;2023-04-25T08:37:08;10.60;99.90
33594;DHT22;19920;52.242;20.940;2023-04-25T08:39:35;10.50;99.90
33594;DHT22;19920;52.242;20.940;2023-04-25T08:42:02;10.50;99.90
33594;DHT22;19920;52.242;20.940;2023-04-25T08:44:33;10.70;99.90
33594;DHT22;19920;52.242;20.940;2023-04-25T08:47:03;10.60;99.90
33594;DHT22;19920;52.242;20.940;2023-04-25T08:49:33;10.70;99.90
33594;DHT22;19920;52.242;20.940;2023-04-25T08:52:04;11.00;99.90
33594;DHT22;19920;52.242;20.940;2023-04-25T08:54:32;10.90;99.90
33594;DHT22;19920;52.242;20.940;2023-04-25T08:57:00;10.90;99.90
33594;DHT22;19920;52.242;20.940;2023-04-25T08:59:30;10.70;99.90
33594;DHT22;19920;52.242;20.940;2023-04-25T09:01:57;10.80;99.90
33594;DHT22;19920;52.242;20.940;2023-04-25T09:04:22;10.60;99.90
33594;DHT22;19920;52.242;20.940;2023-04-25T09:06:48;10.60;99.90
33594;DHT22;19920;52.242;20.940;2023-04-25T09:09:14;10.60;99.90
33594;DHT22;19920;52.242;20.940;2023-04-25T09:11:40;10.50;99.90
33594;DHT22;19920;52.242;20.940;2023-04-25T09:14:16;10.50;99.90
33594;DHT22;19920;52.242;20.940;2023-04-25T09:16:59;10.50;99.90
33594;DHT22;19920;52.242;20.940;2023-04-25T09:19:27;10.70;99.90
33594;DHT22;19920;52.242;20.940;2023-04-25T09:21:54;10.70;99.90
33594;DHT22;19920;52.242;20.940;2023-04-25T09:24:41;10.70;99.90
33594;DHT22;19920;52.242;20.940;2023-04-25T09:27:10;10.80;99.90
33594;DHT22;19920;52.242;20.940;2023-04-25T09:29:38;10.80;99.90
33594;DHT22;19920;52.242;20.940;2023-04-25T09:32:12;10.80;99.90
33594;DHT22;19920;52.242;20.940;2023-04-25T09:34:55;10.80;99.90
33594;DHT22;19920;52.242;20.940;2023-04-25T09:39:49;10.70;99.90
33594;DHT22;19920;52.242;20.940;2023-04-25T09:42:16;10.50;99.90
33594;DHT22;19920;52.242;20.940;2023-04-25T09:44:46;10.50;99.90
33594;DHT22;19920;52.242;20.940;2023-04-25T09:47:14;10.50;99.90
33594;DHT22;19920;52.242;20.940;2023-04-25T09:49:41;10.60;99.90
33594;DHT22;19920;52.242;20.940;2023-04-25T09:52:15;10.60;99.90
33594;DHT22;19920;52.242;20.940;2023-04-25T09:54:41;10.80;99.90
33594;DHT22;19920;52.242;20.940;2023-04-25T09:57:27;10.70;99.90
33594;DHT22;19920;52.242;20.940;2023-04-25T09:59:54;10.70;99.90
33594;DHT22;19920;52.242;20.940;2023-04-25T10:02:23;10.60;99.90
33594;DHT22;19920;52.242;20.940;2023-04-25T10:04:53;10.60;99.90
33594;DHT22;19920;52.242;20.940;2023-04-25T10:07:29;10.70;99.90
33594;DHT22;19920;52.242;20.940;2023-04-25T10:10:01;10.60;99.90
33594;DHT22;19920;52.242;20.940;2023-04-25T10:12:33;10.60;99.90
33594;DHT22;19920;52.242;20.940;2023-04-25T10:14:59;10.60;99.90
33594;DHT22;19920;52.242;20.940;2023-04-25T10:17:26;10.60;99.90
33594;DHT22;19920;52.242;20.940;2023-04-25T10:19:55;10.50;99.90
33594;DHT22;19920;52.242;20.940;2023-04-25T10:22:29;10.50;99.90
33594;DHT22;19920;52.242;20.940;2023-04-25T10:24:56;10.50;99.90
33594;DHT22;19920;52.242;20.940;2023-04-25T10:27:22;10.50;99.90
33594;DHT22;19920;52.242;20.940;2023-04-25T10:32:35;10.50;99.90
33594;DHT22;19920;52.242;20.940;2023-04-25T10:35:17;10.60;99.90
33594;DHT22;19920;52.242;20.940;2023-04-25T10:38:11;10.50;99.90
33594;DHT22;19920;52.242;20.940;2023-04-25T10:40:39;10.50;99.90
33594;DHT22;19920;52.242;20.940;2023-04-25T10:43:33;10.50;99.90
33594;DHT22;19920;52.242;20.940;2023-04-25T10:45:59;10.30;99.90
33594;DHT22;19920;52.242;20.940;2023-04-25T10:48:27;10.40;99.90
33594;DHT22;19920;52.242;20.940;2023-04-25T10:51:09;10.30;99.90
33594;DHT22;19920;52.242;20.940;2023-04-25T10:53:34;10.30;99.90
33594;DHT22;19920;52.242;20.940;2023-04-25T10:56:00;10.30;99.90
33594;DHT22;19920;52.242;20.940;2023-04-25T10:58:26;10.40;99.90
33594;DHT22;19920;52.242;20.940;2023-04-25T11:00:52;10.50;99.90
33594;DHT22;19920;52.242;20.940;2023-04-25T11:03:21;10.50;99.90
33594;DHT22;19920;52.242;20.940;2023-04-25T11:05:48;10.50;99.90
33594;DHT22;19920;52.242;20.940;2023-04-25T11:08:24;10.70;99.90
33594;DHT22;19920;52.242;20.940;2023-04-25T11:10:53;10.70;99.90
33594;DHT22;19920;52.242;20.940;2023-04-25T11:13:22;10.80;99.90
33594;DHT22;19920;52.242;20.940;2023-04-25T11:15:54;10.90;99.90
33594;DHT22;19920;52.242;20.940;2023-04-25T11:18:19;10.90;99.90
33594;DHT22;19920;52.242;20.940;2023-04-25T11:20:47;10.90;99.90
33594;DHT22;19920;52.242;20.940;2023-04-25T11:23:13;11.00;99.90
33594;DHT22;19920;52.242;20.940;2023-04-25T11:25:40;10.90;99.90
33594;DHT22;19920;52.242;20.940;2023-04-25T11:28:06;11.00;99.90
33594;DHT22;19920;52.242;20.940;2023-04-25T11:30:32;11.10;99.90
33594;DHT22;19920;52.242;20.940;2023-04-25T11:32:57;11.20;99.90
33594;DHT22;19920;52.242;20.940;2023-04-25T11:35:23;11.20;99.90
33594;DHT22;19920;52.242;20.940;2023-04-25T11:37:50;11.20;99.90
33594;DHT22;19920;52.242;20.940;2023-04-25T11:40:16;11.30;99.90
33594;DHT22;19920;52.242;20.940;2023-04-25T11:42:46;11.40;99.90
33594;DHT22;19920;52.242;20.940;2023-04-25T11:45:12;11.40;99.90
33594;DHT22;19920;52.242;20.940;2023-04-25T11:47:38;11.40;99.90
33594;DHT22;19920;52.242;20.940;2023-04-25T11:50:06;11.40;99.90
33594;DHT22;19920;52.242;20.940;2023-04-25T11:52:40;11.30;99.90
33594;DHT22;19920;52.242;20.940;2023-04-25T11:57:38;11.20;99.90
33594;DHT22;19920;52.242;20.940;2023-04-25T12:02:47;11.20;99.90
33594;DHT22;19920;52.242;20.940;2023-04-25T12:05:14;11.30;99.90
33594;DHT22;19920;52.242;20.940;2023-04-25T12:07:41;11.30;99.90
33594;DHT22;19920;52.242;20.940;2023-04-25T12:10:10;11.30;99.90
33594;DHT22;19920;52.242;20.940;2023-04-25T12:12:37;11.40;99.90
33594;DHT22;19920;52.242;20.940;2023-04-25T12:15:29;11.40;99.90
33594;DHT22;19920;52.242;20.940;2023-04-25T12:17:55;11.40;99.90
33594;DHT22;19920;52.242;20.940;2023-04-25T12:20:23;11.40;99.90
33594;DHT22;19920;52.242;20.940;2023-04-25T12:22:50;11.30;99.90
33594;DHT22;19920;52.242;20.940;2023-04-25T12:25:39;11.30;99.90
33594;DHT22;19920;52.242;20.940;2023-04-25T12:28:14;11.40;99.90
33594;DHT22;19920;52.242;20.940;2023-04-25T12:31:03;11.50;99.90
33594;DHT22;19920;52.242;20.940;2023-04-25T12:33:31;11.40;99.90
33594;DHT22;19920;52.242;20.940;2023-04-25T12:35:57;11.30;99.90
33594;DHT22;19920;52.242;20.940;2023-04-25T12:38:27;11.30;99.90
33594;DHT22;19920;52.242;20.940;2023-04-25T12:40:53;11.30;99.90
33594;DHT22;19920;52.242;20.940;2023-04-25T12:43:19;11.30;99.90
33594;DHT22;19920;52.242;20.940;2023-04-25T12:45:47;11.30;99.90
33594;DHT22;19920;52.242;20.940;2023-04-25T12:48:13;11.20;99.90
33594;DHT22;19920;52.242;20.940;2023-04-25T12:50:39;11.20;99.90
33594;DHT22;19920;52.242;20.940;2023-04-25T12:53:06;11.30;99.90
33594;DHT22;19920;52.242;20.940;2023-04-25T12:55:32;11.20;99.90
33594;DHT22;19920;52.242;20.940;2023-04-25T12:57:57;11.20;99.90
33594;DHT22;19920;52.242;20.940;2023-04-25T13:00:23;11.20;99.90
33594;DHT22;19920;52.242;20.940;2023-04-25T13:02:49;11.30;99.90
33594;DHT22;19920;52.242;20.940;2023-04-25T13:05:15;11.30;99.90
33594;DHT22;19920;52.242;20.940;2023-04-25T13:07:40;11.20;99.90
33594;DHT22;19920;52.242;20.940;2023-04-25T13:10:06;11.10;99.90
33594;DHT22;19920;52.242;20.940;2023-04-25T13:12:33;11.20;99.90
33594;DHT22;19920;52.242;20.940;2023-04-25T13:14:58;11.30;99.90
33594;DHT22;19920;52.242;20.940;2023-04-25T13:17:24;11.30;99.90
33594;DHT22;19920;52.242;20.940;2023-04-25T13:19:50;11.30;99.90
33594;DHT22;19920;52.242;20.940;2023-04-25T13:22:16;11.20;99.90
33594;DHT22;19920;52.242;20.940;2023-04-25T13:24:42;11.20;99.90
33594;DHT22;19920;52.242;20.940;2023-04-25T13:27:08;11.30;99.90
33594;DHT22;19920;52.242;20.940;2023-04-25T13:29:34;11.30;99.90
33594;DHT22;19920;52.242;20.940;2023-04-25T13:32:01;11.30;99.90
33594;DHT22;19920;52.242;20.940;2023-04-25T13:34:28;11.30;99.90
33594;DHT22;19920;52.242;20.940;2023-04-25T13:36:55;11.30;99.90
33594;DHT22;19920;52.242;20.940;2023-04-25T13:39:20;11.40;99.90
33594;DHT22;19920;52.242;20.940;2023-04-25T13:41:46;11.30;99.90
33594;DHT22;19920;52.242;20.940;2023-04-25T13:44:12;11.30;99.90
33594;DHT22;19920;52.242;20.940;2023-04-25T13:46:37;11.30;99.90
33594;DHT22;19920;52.242;20.940;2023-04-25T13:49:04;11.40;99.90
33594;DHT22;19920;52.242;20.940;2023-04-25T13:51:29;11.30;99.90
33594;DHT22;19920;52.242;20.940;2023-04-25T13:53:56;11.20;99.90
33594;DHT22;19920;52.242;20.940;2023-04-25T13:56:22;11.20;99.90
33594;DHT22;19920;52.242;20.940;2023-04-25T13:58:49;11.20;99.90
33594;DHT22;19920;52.242;20.940;2023-04-25T14:01:15;11.30;99.90
33594;DHT22;19920;52.242;20.940;2023-04-25T14:03:41;11.20;99.90
33594;DHT22;19920;52.242;20.940;2023-04-25T14:06:07;11.30;99.90
33594;DHT22;19920;52.242;20.940;2023-04-25T14:08:34;11.40;99.90
33594;DHT22;19920;52.242;20.940;2023-04-25T14:10:59;11.30;99.90
33594;DHT22;19920;52.242;20.940;2023-04-25T14:13:26;11.20;99.90
33594;DHT22;19920;52.242;20.940;2023-04-25T14:15:51;11.20;99.90
33594;DHT22;19920;52.242;20.940;2023-04-25T14:18:17;11.20;99.90
33594;DHT22;19920;52.242;20.940;2023-04-25T14:20:43;11.30;99.90
33594;DHT22;19920;52.242;20.940;2023-04-25T14:23:09;11.30;99.90
33594;DHT22;19920;52.242;20.940;2023-04-25T14:25:35;11.20;99.90
33594;DHT22;19920;52.242;20.940;2023-04-25T14:28:01;11.20;99.90
33594;DHT22;19920;52.242;20.940;2023-04-25T14:30:27;11.20;99.90
33594;DHT22;19920;52.242;20.940;2023-04-25T14:32:53;11.20;99.90
33594;DHT22;19920;52.242;20.940;2023-04-25T14:35:19;11.10;99.90
33594;DHT22;19920;52.242;20.940;2023-04-25T14:37:45;10.90;99.90
33594;DHT22;19920;52.242;20.940;2023-04-25T14:40:11;10.90;99.90
33594;DHT22;19920;52.242;20.940;2023-04-25T14:42:41;10.90;99.90
33594;DHT22;19920;52.242;20.940;2023-04-25T14:45:07;10.80;99.90
33594;DHT22;19920;52.242;20.940;2023-04-25T14:47:34;10.80;99.90
33594;DHT22;19920;52.242;20.940;2023-04-25T14:50:00;10.70;99.90
33594;DHT22;19920;52.242;20.940;2023-04-25T14:52:27;10.70;99.90
33594;DHT22;19920;52.242;20.940;2023-04-25T14:54:52;10.70;99.90
33594;DHT22;19920;52.242;20.940;2023-04-25T14:57:18;10.70;99.90
33594;DHT22;19920;52.242;20.940;2023-04-25T14:59:44;10.90;99.90
33594;DHT22;19920;52.242;20.940;2023-04-25T15:02:11;11.10;99.90
33594;DHT22;19920;52.242;20.940;2023-04-25T15:04:36;11.20;99.90
33594;DHT22;19920;52.242;20.940;2023-04-25T15:07:02;11.30;99.90
33594;DHT22;19920;52.242;20.940;2023-04-25T15:09:28;11.30;99.90
33594;DHT22;19920;52.242;20.940;2023-04-25T15:11:54;11.20;99.90
33594;DHT22;19920;52.242;20.940;2023-04-25T15:14:20;11.10;99.90
33594;DHT22;19920;52.242;20.940;2023-04-25T15:16:45;11.00;99.90
33594;DHT22;19920;52.242;20.940;2023-04-25T15:19:11;10.90;99.90
33594;DHT22;19920;52.242;20.940;2023-04-25T15:21:37;10.80;99.90
33594;DHT22;19920;52.242;20.940;2023-04-25T15:24:02;10.80;99.90